Atkins, Virginia
Current Conditions -  °F | °C
As of 7:55 AM on Tuesday 21 Oct 2014 (Local Time) from KMKJ Reporting Station
Haze Haze  
Wind Chill: 11°   Ceiling: 600
Heat Index: 11°   Visibility: 5mi
Dew Point: 10°   Wind: 10mph
Humidity: 92%   Direction: 250°WSW
Pressure: 29.98"   Gusts: 18mph
Location:  36.87°N, 81.4°W
Report Text: KMKJ 211155Z AUTO 25009G16KT 5SM BR OVC006 11/10 A2998 RMK AO2 T01070095 10110 20105
Loading
Personal Weather Stations






























Interactive Weather Map
Tropical Storm Tracking
New forecast layout! Learn more

10-Day Weather Forecast

Advertisements
Track Severe Weather on mobile